sensor_id;sensor_type;location;lat;lon;timestamp;P1;durP1;ratioP1;P2;durP2;ratioP2
34505;SDS011;20748;42.632;23.198;2022-12-29T00:02:18;64.78;;;28.75;;
34505;SDS011;20748;42.632;23.198;2022-12-29T00:04:50;57.95;;;28.65;;
34505;SDS011;20748;42.632;23.198;2022-12-29T00:07:22;51.47;;;25.42;;
34505;SDS011;20748;42.632;23.198;2022-12-29T00:09:55;62.03;;;29.42;;
34505;SDS011;20748;42.632;23.198;2022-12-29T00:12:28;65.22;;;28.13;;
34505;SDS011;20748;42.632;23.198;2022-12-29T00:15:20;61.20;;;27.52;;
34505;SDS011;20748;42.632;23.198;2022-12-29T00:18:11;58.50;;;27.05;;
34505;SDS011;20748;42.632;23.198;2022-12-29T00:20:43;58.60;;;28.15;;
34505;SDS011;20748;42.632;23.198;2022-12-29T00:23:33;49.15;;;23.15;;
34505;SDS011;20748;42.632;23.198;2022-12-29T00:26:24;40.72;;;21.33;;
34505;SDS011;20748;42.632;23.198;2022-12-29T00:29:14;45.45;;;20.67;;
34505;SDS011;20748;42.632;23.198;2022-12-29T00:32:06;42.33;;;19.95;;
34505;SDS011;20748;42.632;23.198;2022-12-29T00:35:06;39.70;;;20.02;;
34505;SDS011;20748;42.632;23.198;2022-12-29T00:37:40;47.28;;;18.42;;
34505;SDS011;20748;42.632;23.198;2022-12-29T00:40:33;25.15;;;13.48;;
34505;SDS011;20748;42.632;23.198;2022-12-29T00:43:26;37.33;;;15.75;;
34505;SDS011;20748;42.632;23.198;2022-12-29T00:46:17;30.85;;;14.95;;
34505;SDS011;20748;42.632;23.198;2022-12-29T00:48:51;32.22;;;15.10;;
34505;SDS011;20748;42.632;23.198;2022-12-29T00:51:42;31.20;;;13.82;;
34505;SDS011;20748;42.632;23.198;2022-12-29T00:54:14;37.33;;;15.20;;
34505;SDS011;20748;42.632;23.198;2022-12-29T00:56:49;30.08;;;13.93;;
34505;SDS011;20748;42.632;23.198;2022-12-29T00:59:24;28.35;;;12.65;;
34505;SDS011;20748;42.632;23.198;2022-12-29T01:01:56;23.75;;;13.07;;
34505;SDS011;20748;42.632;23.198;2022-12-29T01:04:29;51.72;;;21.73;;
34505;SDS011;20748;42.632;23.198;2022-12-29T01:07:02;49.40;;;23.77;;
34505;SDS011;20748;42.632;23.198;2022-12-29T01:09:35;45.20;;;22.25;;
34505;SDS011;20748;42.632;23.198;2022-12-29T01:12:32;27.88;;;12.82;;
34505;SDS011;20748;42.632;23.198;2022-12-29T01:15:16;47.05;;;21.85;;
34505;SDS011;20748;42.632;23.198;2022-12-29T01:17:49;58.30;;;23.60;;
34505;SDS011;20748;42.632;23.198;2022-12-29T01:20:21;44.00;;;21.58;;
34505;SDS011;20748;42.632;23.198;2022-12-29T01:22:54;43.95;;;21.35;;
34505;SDS011;20748;42.632;23.198;2022-12-29T01:25:26;44.80;;;20.15;;
34505;SDS011;20748;42.632;23.198;2022-12-29T01:27:59;45.78;;;20.40;;
34505;SDS011;20748;42.632;23.198;2022-12-29T01:30:32;49.70;;;21.67;;
34505;SDS011;20748;42.632;23.198;2022-12-29T01:33:05;45.53;;;22.40;;
34505;SDS011;20748;42.632;23.198;2022-12-29T01:35:38;49.22;;;20.73;;
34505;SDS011;20748;42.632;23.198;2022-12-29T01:38:10;40.33;;;20.23;;
34505;SDS011;20748;42.632;23.198;2022-12-29T01:40:43;47.55;;;21.20;;
34505;SDS011;20748;42.632;23.198;2022-12-29T01:43:16;37.92;;;17.27;;
34505;SDS011;20748;42.632;23.198;2022-12-29T01:45:51;37.28;;;16.42;;
34505;SDS011;20748;42.632;23.198;2022-12-29T01:48:25;32.55;;;14.73;;
34505;SDS011;20748;42.632;23.198;2022-12-29T01:50:58;30.05;;;15.35;;
34505;SDS011;20748;42.632;23.198;2022-12-29T01:53:30;39.15;;;16.67;;
34505;SDS011;20748;42.632;23.198;2022-12-29T01:56:06;33.67;;;16.75;;
34505;SDS011;20748;42.632;23.198;2022-12-29T01:58:41;31.77;;;15.77;;
34505;SDS011;20748;42.632;23.198;2022-12-29T02:01:19;32.50;;;15.35;;
34505;SDS011;20748;42.632;23.198;2022-12-29T02:03:53;38.30;;;14.80;;
34505;SDS011;20748;42.632;23.198;2022-12-29T02:06:27;30.50;;;15.80;;
34505;SDS011;20748;42.632;23.198;2022-12-29T02:09:03;33.20;;;14.02;;
34505;SDS011;20748;42.632;23.198;2022-12-29T02:11:36;30.55;;;15.93;;
34505;SDS011;20748;42.632;23.198;2022-12-29T02:14:11;35.65;;;14.32;;
34505;SDS011;20748;42.632;23.198;2022-12-29T02:16:49;31.60;;;15.23;;
34505;SDS011;20748;42.632;23.198;2022-12-29T02:22:38;31.48;;;15.30;;
34505;SDS011;20748;42.632;23.198;2022-12-29T02:25:29;32.95;;;15.13;;
34505;SDS011;20748;42.632;23.198;2022-12-29T02:28:38;33.70;;;15.43;;
34505;SDS011;20748;42.632;23.198;2022-12-29T02:31:37;30.98;;;14.15;;
34505;SDS011;20748;42.632;23.198;2022-12-29T02:34:20;27.25;;;14.63;;
34505;SDS011;20748;42.632;23.198;2022-12-29T02:37:00;28.42;;;15.57;;
34505;SDS011;20748;42.632;23.198;2022-12-29T02:39:38;32.03;;;16.23;;
34505;SDS011;20748;42.632;23.198;2022-12-29T02:42:19;35.20;;;16.75;;
34505;SDS011;20748;42.632;23.198;2022-12-29T02:45:20;31.85;;;15.60;;
34505;SDS011;20748;42.632;23.198;2022-12-29T02:48:01;32.47;;;15.82;;
34505;SDS011;20748;42.632;23.198;2022-12-29T02:50:41;26.30;;;13.80;;
34505;SDS011;20748;42.632;23.198;2022-12-29T02:56:13;24.50;;;13.40;;
34505;SDS011;20748;42.632;23.198;2022-12-29T02:58:45;26.63;;;13.30;;
34505;SDS011;20748;42.632;23.198;2022-12-29T03:01:23;28.10;;;14.40;;
34505;SDS011;20748;42.632;23.198;2022-12-29T03:04:19;27.95;;;12.57;;
34505;SDS011;20748;42.632;23.198;2022-12-29T03:07:03;28.80;;;13.93;;
34505;SDS011;20748;42.632;23.198;2022-12-29T03:09:47;31.38;;;14.25;;
34505;SDS011;20748;42.632;23.198;2022-12-29T03:12:28;24.33;;;13.00;;
34505;SDS011;20748;42.632;23.198;2022-12-29T03:15:21;41.10;;;14.70;;
34505;SDS011;20748;42.632;23.198;2022-12-29T03:18:19;34.05;;;17.00;;
34505;SDS011;20748;42.632;23.198;2022-12-29T03:20:57;36.63;;;16.30;;
34505;SDS011;20748;42.632;23.198;2022-12-29T03:26:09;32.45;;;12.45;;
34505;SDS011;20748;42.632;23.198;2022-12-29T03:28:46;31.88;;;16.48;;
34505;SDS011;20748;42.632;23.198;2022-12-29T03:31:28;26.67;;;15.77;;
34505;SDS011;20748;42.632;23.198;2022-12-29T03:34:01;33.13;;;17.20;;
34505;SDS011;20748;42.632;23.198;2022-12-29T03:36:39;25.92;;;13.52;;
34505;SDS011;20748;42.632;23.198;2022-12-29T03:39:16;32.17;;;14.63;;
34505;SDS011;20748;42.632;23.198;2022-12-29T03:41:54;35.47;;;15.13;;
34505;SDS011;20748;42.632;23.198;2022-12-29T03:44:32;36.20;;;13.60;;
34505;SDS011;20748;42.632;23.198;2022-12-29T03:47:06;30.58;;;14.35;;
34505;SDS011;20748;42.632;23.198;2022-12-29T03:49:39;35.15;;;14.80;;
34505;SDS011;20748;42.632;23.198;2022-12-29T03:52:13;36.00;;;17.73;;
34505;SDS011;20748;42.632;23.198;2022-12-29T03:54:48;33.90;;;16.40;;
34505;SDS011;20748;42.632;23.198;2022-12-29T03:57:21;28.27;;;13.50;;
34505;SDS011;20748;42.632;23.198;2022-12-29T04:00:00;20.05;;;11.85;;
34505;SDS011;20748;42.632;23.198;2022-12-29T04:02:35;33.28;;;14.25;;
34505;SDS011;20748;42.632;23.198;2022-12-29T04:05:07;25.17;;;12.27;;
34505;SDS011;20748;42.632;23.198;2022-12-29T04:07:41;26.60;;;13.48;;
34505;SDS011;20748;42.632;23.198;2022-12-29T04:10:13;26.77;;;13.02;;
34505;SDS011;20748;42.632;23.198;2022-12-29T04:12:46;29.75;;;13.73;;
34505;SDS011;20748;42.632;23.198;2022-12-29T04:15:18;33.08;;;14.63;;
34505;SDS011;20748;42.632;23.198;2022-12-29T04:17:51;33.65;;;15.13;;
34505;SDS011;20748;42.632;23.198;2022-12-29T04:20:23;30.33;;;13.32;;
34505;SDS011;20748;42.632;23.198;2022-12-29T04:23:17;29.17;;;14.02;;
34505;SDS011;20748;42.632;23.198;2022-12-29T04:25:50;31.55;;;11.82;;
34505;SDS011;20748;42.632;23.198;2022-12-29T04:28:22;33.47;;;17.55;;
34505;SDS011;20748;42.632;23.198;2022-12-29T04:31:18;35.97;;;16.48;;
34505;SDS011;20748;42.632;23.198;2022-12-29T04:33:51;41.47;;;16.60;;
34505;SDS011;20748;42.632;23.198;2022-12-29T04:36:24;36.28;;;17.10;;
34505;SDS011;20748;42.632;23.198;2022-12-29T04:39:02;32.78;;;15.88;;
34505;SDS011;20748;42.632;23.198;2022-12-29T04:41:37;33.75;;;15.10;;
34505;SDS011;20748;42.632;23.198;2022-12-29T04:44:12;37.42;;;16.13;;
34505;SDS011;20748;42.632;23.198;2022-12-29T04:46:45;36.58;;;19.10;;
34505;SDS011;20748;42.632;23.198;2022-12-29T04:49:35;26.33;;;14.85;;
34505;SDS011;20748;42.632;23.198;2022-12-29T04:52:39;40.40;;;18.13;;
34505;SDS011;20748;42.632;23.198;2022-12-29T04:55:15;33.22;;;17.58;;
34505;SDS011;20748;42.632;23.198;2022-12-29T04:57:49;37.25;;;17.30;;
34505;SDS011;20748;42.632;23.198;2022-12-29T05:00:24;37.45;;;18.75;;
34505;SDS011;20748;42.632;23.198;2022-12-29T05:02:56;31.60;;;15.45;;
34505;SDS011;20748;42.632;23.198;2022-12-29T05:05:30;29.67;;;15.75;;
34505;SDS011;20748;42.632;23.198;2022-12-29T05:08:03;34.15;;;17.70;;
34505;SDS011;20748;42.632;23.198;2022-12-29T05:10:37;33.95;;;15.85;;
34505;SDS011;20748;42.632;23.198;2022-12-29T05:13:15;28.48;;;14.93;;
34505;SDS011;20748;42.632;23.198;2022-12-29T05:15:49;28.80;;;13.90;;
34505;SDS011;20748;42.632;23.198;2022-12-29T05:18:23;30.60;;;14.02;;
34505;SDS011;20748;42.632;23.198;2022-12-29T05:20:55;20.10;;;12.52;;
34505;SDS011;20748;42.632;23.198;2022-12-29T05:23:28;29.00;;;15.00;;
34505;SDS011;20748;42.632;23.198;2022-12-29T05:26:06;26.98;;;14.10;;
34505;SDS011;20748;42.632;23.198;2022-12-29T05:29:08;32.08;;;15.27;;
34505;SDS011;20748;42.632;23.198;2022-12-29T05:31:40;27.65;;;13.82;;
34505;SDS011;20748;42.632;23.198;2022-12-29T05:34:14;25.50;;;11.73;;
34505;SDS011;20748;42.632;23.198;2022-12-29T05:36:47;34.28;;;15.90;;
34505;SDS011;20748;42.632;23.198;2022-12-29T05:39:20;27.20;;;13.43;;
34505;SDS011;20748;42.632;23.198;2022-12-29T05:41:59;29.65;;;13.82;;
34505;SDS011;20748;42.632;23.198;2022-12-29T05:44:41;29.63;;;14.32;;
34505;SDS011;20748;42.632;23.198;2022-12-29T05:47:27;27.15;;;13.45;;
34505;SDS011;20748;42.632;23.198;2022-12-29T05:50:15;31.30;;;13.40;;
34505;SDS011;20748;42.632;23.198;2022-12-29T05:53:27;31.90;;;14.60;;
34505;SDS011;20748;42.632;23.198;2022-12-29T05:56:01;35.72;;;15.80;;
34505;SDS011;20748;42.632;23.198;2022-12-29T05:58:34;34.50;;;15.80;;
34505;SDS011;20748;42.632;23.198;2022-12-29T06:01:07;33.90;;;17.63;;
34505;SDS011;20748;42.632;23.198;2022-12-29T06:03:39;31.50;;;14.68;;
34505;SDS011;20748;42.632;23.198;2022-12-29T06:08:51;36.33;;;15.68;;
34505;SDS011;20748;42.632;23.198;2022-12-29T06:11:25;31.05;;;14.15;;
34505;SDS011;20748;42.632;23.198;2022-12-29T06:14:01;32.03;;;14.45;;
34505;SDS011;20748;42.632;23.198;2022-12-29T06:16:34;26.95;;;14.85;;
34505;SDS011;20748;42.632;23.198;2022-12-29T06:19:10;31.45;;;14.07;;
34505;SDS011;20748;42.632;23.198;2022-12-29T06:21:42;38.70;;;14.82;;
34505;SDS011;20748;42.632;23.198;2022-12-29T06:24:15;47.65;;;19.05;;
34505;SDS011;20748;42.632;23.198;2022-12-29T06:26:47;38.75;;;17.30;;
34505;SDS011;20748;42.632;23.198;2022-12-29T06:29:20;30.83;;;16.40;;
34505;SDS011;20748;42.632;23.198;2022-12-29T06:31:53;32.50;;;15.48;;
34505;SDS011;20748;42.632;23.198;2022-12-29T06:34:30;32.45;;;15.98;;
34505;SDS011;20748;42.632;23.198;2022-12-29T06:37:02;32.25;;;15.00;;
34505;SDS011;20748;42.632;23.198;2022-12-29T06:39:35;32.58;;;17.17;;
34505;SDS011;20748;42.632;23.198;2022-12-29T06:42:13;32.57;;;17.23;;
34505;SDS011;20748;42.632;23.198;2022-12-29T06:45:05;29.08;;;13.90;;
34505;SDS011;20748;42.632;23.198;2022-12-29T06:47:39;32.33;;;14.43;;
34505;SDS011;20748;42.632;23.198;2022-12-29T06:50:11;31.98;;;13.13;;
34505;SDS011;20748;42.632;23.198;2022-12-29T06:52:43;29.70;;;15.68;;
34505;SDS011;20748;42.632;23.198;2022-12-29T06:55:16;27.45;;;14.23;;
34505;SDS011;20748;42.632;23.198;2022-12-29T06:57:49;28.65;;;14.88;;
34505;SDS011;20748;42.632;23.198;2022-12-29T07:00:22;34.05;;;17.05;;
34505;SDS011;20748;42.632;23.198;2022-12-29T07:02:55;41.10;;;19.55;;
34505;SDS011;20748;42.632;23.198;2022-12-29T07:05:28;38.08;;;19.30;;
34505;SDS011;20748;42.632;23.198;2022-12-29T07:08:02;38.00;;;17.77;;
34505;SDS011;20748;42.632;23.198;2022-12-29T07:10:35;45.78;;;21.45;;
34505;SDS011;20748;42.632;23.198;2022-12-29T07:13:07;42.33;;;21.67;;
34505;SDS011;20748;42.632;23.198;2022-12-29T07:15:41;43.00;;;22.75;;
34505;SDS011;20748;42.632;23.198;2022-12-29T07:18:13;56.95;;;23.67;;
34505;SDS011;20748;42.632;23.198;2022-12-29T07:20:45;58.60;;;24.88;;
34505;SDS011;20748;42.632;23.198;2022-12-29T07:23:18;51.35;;;23.88;;
34505;SDS011;20748;42.632;23.198;2022-12-29T07:25:50;47.45;;;22.60;;
34505;SDS011;20748;42.632;23.198;2022-12-29T07:28:31;46.00;;;21.45;;
34505;SDS011;20748;42.632;23.198;2022-12-29T07:31:05;41.55;;;22.17;;
34505;SDS011;20748;42.632;23.198;2022-12-29T07:33:38;47.55;;;22.00;;
34505;SDS011;20748;42.632;23.198;2022-12-29T07:36:10;47.88;;;23.45;;
34505;SDS011;20748;42.632;23.198;2022-12-29T07:38:43;51.60;;;24.95;;
34505;SDS011;20748;42.632;23.198;2022-12-29T07:41:16;56.08;;;26.73;;
34505;SDS011;20748;42.632;23.198;2022-12-29T07:43:48;76.32;;;33.38;;
34505;SDS011;20748;42.632;23.198;2022-12-29T07:46:39;121.05;;;50.55;;
34505;SDS011;20748;42.632;23.198;2022-12-29T07:49:29;88.72;;;35.80;;
34505;SDS011;20748;42.632;23.198;2022-12-29T07:52:01;67.97;;;31.35;;
34505;SDS011;20748;42.632;23.198;2022-12-29T07:54:33;59.25;;;28.77;;
34505;SDS011;20748;42.632;23.198;2022-12-29T07:57:06;57.78;;;25.70;;
34505;SDS011;20748;42.632;23.198;2022-12-29T07:59:38;54.72;;;26.38;;
34505;SDS011;20748;42.632;23.198;2022-12-29T08:02:11;57.65;;;25.98;;
34505;SDS011;20748;42.632;23.198;2022-12-29T08:04:44;42.65;;;21.73;;
34505;SDS011;20748;42.632;23.198;2022-12-29T08:07:16;51.80;;;24.30;;
34505;SDS011;20748;42.632;23.198;2022-12-29T08:09:49;41.60;;;20.98;;
34505;SDS011;20748;42.632;23.198;2022-12-29T08:12:21;32.67;;;17.80;;
34505;SDS011;20748;42.632;23.198;2022-12-29T08:14:54;45.90;;;21.20;;
34505;SDS011;20748;42.632;23.198;2022-12-29T08:17:27;31.13;;;15.85;;
34505;SDS011;20748;42.632;23.198;2022-12-29T08:19:59;44.42;;;22.10;;
34505;SDS011;20748;42.632;23.198;2022-12-29T08:22:32;38.88;;;18.35;;
34505;SDS011;20748;42.632;23.198;2022-12-29T08:25:05;36.13;;;14.13;;
34505;SDS011;20748;42.632;23.198;2022-12-29T08:27:38;46.00;;;22.92;;
34505;SDS011;20748;42.632;23.198;2022-12-29T08:30:10;30.42;;;14.50;;
34505;SDS011;20748;42.632;23.198;2022-12-29T08:32:44;31.27;;;15.98;;
34505;SDS011;20748;42.632;23.198;2022-12-29T08:35:17;31.23;;;14.70;;
34505;SDS011;20748;42.632;23.198;2022-12-29T08:37:49;43.53;;;19.98;;
34505;SDS011;20748;42.632;23.198;2022-12-29T08:40:22;30.73;;;15.50;;
34505;SDS011;20748;42.632;23.198;2022-12-29T08:42:54;36.53;;;16.35;;
34505;SDS011;20748;42.632;23.198;2022-12-29T08:45:27;30.40;;;15.02;;
34505;SDS011;20748;42.632;23.198;2022-12-29T08:48:00;30.02;;;15.38;;
34505;SDS011;20748;42.632;23.198;2022-12-29T08:50:32;48.78;;;23.27;;
34505;SDS011;20748;42.632;23.198;2022-12-29T08:53:05;28.35;;;14.75;;
34505;SDS011;20748;42.632;23.198;2022-12-29T08:55:37;35.55;;;17.52;;
34505;SDS011;20748;42.632;23.198;2022-12-29T08:58:10;31.02;;;14.38;;
34505;SDS011;20748;42.632;23.198;2022-12-29T09:00:47;21.60;;;10.40;;
34505;SDS011;20748;42.632;23.198;2022-12-29T09:03:20;24.60;;;14.52;;
34505;SDS011;20748;42.632;23.198;2022-12-29T09:06:13;30.02;;;16.73;;
34505;SDS011;20748;42.632;23.198;2022-12-29T09:08:46;29.63;;;14.60;;
34505;SDS011;20748;42.632;23.198;2022-12-29T09:11:20;20.75;;;10.55;;
34505;SDS011;20748;42.632;23.198;2022-12-29T09:13:54;22.90;;;11.35;;
34505;SDS011;20748;42.632;23.198;2022-12-29T09:16:26;25.58;;;10.65;;
34505;SDS011;20748;42.632;23.198;2022-12-29T09:19:00;21.27;;;10.73;;
34505;SDS011;20748;42.632;23.198;2022-12-29T09:21:32;26.77;;;13.15;;
34505;SDS011;20748;42.632;23.198;2022-12-29T09:24:05;21.45;;;10.88;;
34505;SDS011;20748;42.632;23.198;2022-12-29T09:26:37;21.08;;;10.13;;
34505;SDS011;20748;42.632;23.198;2022-12-29T09:29:17;19.52;;;9.98;;
34505;SDS011;20748;42.632;23.198;2022-12-29T09:31:50;19.00;;;11.00;;
34505;SDS011;20748;42.632;23.198;2022-12-29T09:34:23;18.60;;;10.02;;
34505;SDS011;20748;42.632;23.198;2022-12-29T09:36:56;17.13;;;8.35;;
34505;SDS011;20748;42.632;23.198;2022-12-29T09:39:28;19.88;;;7.50;;
34505;SDS011;20748;42.632;23.198;2022-12-29T09:42:01;16.38;;;8.38;;
34505;SDS011;20748;42.632;23.198;2022-12-29T09:44:42;16.52;;;7.88;;
34505;SDS011;20748;42.632;23.198;2022-12-29T09:47:23;16.52;;;6.75;;
34505;SDS011;20748;42.632;23.198;2022-12-29T09:50:00;15.23;;;7.78;;
34505;SDS011;20748;42.632;23.198;2022-12-29T09:52:36;13.55;;;6.25;;
34505;SDS011;20748;42.632;23.198;2022-12-29T09:55:15;13.05;;;6.50;;
34505;SDS011;20748;42.632;23.198;2022-12-29T09:57:52;16.13;;;7.15;;
34505;SDS011;20748;42.632;23.198;2022-12-29T10:00:32;14.38;;;6.22;;
34505;SDS011;20748;42.632;23.198;2022-12-29T10:03:13;16.05;;;7.00;;
34505;SDS011;20748;42.632;23.198;2022-12-29T10:05:49;11.07;;;6.65;;
34505;SDS011;20748;42.632;23.198;2022-12-29T10:08:28;8.95;;;4.32;;
34505;SDS011;20748;42.632;23.198;2022-12-29T10:11:09;10.45;;;4.07;;
34505;SDS011;20748;42.632;23.198;2022-12-29T10:13:55;9.50;;;5.15;;
34505;SDS011;20748;42.632;23.198;2022-12-29T10:16:49;9.52;;;4.35;;
34505;SDS011;20748;42.632;23.198;2022-12-29T10:19:32;7.70;;;4.15;;
34505;SDS011;20748;42.632;23.198;2022-12-29T10:22:18;9.50;;;4.50;;
34505;SDS011;20748;42.632;23.198;2022-12-29T10:25:02;20.00;;;11.88;;
34505;SDS011;20748;42.632;23.198;2022-12-29T10:27:44;13.90;;;6.50;;
34505;SDS011;20748;42.632;23.198;2022-12-29T10:30:19;20.63;;;13.02;;
34505;SDS011;20748;42.632;23.198;2022-12-29T10:32:52;22.50;;;12.73;;
34505;SDS011;20748;42.632;23.198;2022-12-29T10:35:29;11.98;;;4.88;;
34505;SDS011;20748;42.632;23.198;2022-12-29T10:38:11;9.68;;;3.95;;
34505;SDS011;20748;42.632;23.198;2022-12-29T10:40:50;8.32;;;4.47;;
34505;SDS011;20748;42.632;23.198;2022-12-29T10:43:27;7.60;;;3.95;;
34505;SDS011;20748;42.632;23.198;2022-12-29T10:46:02;7.65;;;4.18;;
34505;SDS011;20748;42.632;23.198;2022-12-29T10:48:37;7.65;;;3.88;;
34505;SDS011;20748;42.632;23.198;2022-12-29T10:51:09;8.63;;;4.38;;
34505;SDS011;20748;42.632;23.198;2022-12-29T10:53:43;7.20;;;3.55;;
34505;SDS011;20748;42.632;23.198;2022-12-29T10:56:21;8.85;;;3.67;;
34505;SDS011;20748;42.632;23.198;2022-12-29T10:59:03;10.50;;;3.78;;
34505;SDS011;20748;42.632;23.198;2022-12-29T11:01:45;8.52;;;4.22;;
34505;SDS011;20748;42.632;23.198;2022-12-29T11:07:19;8.98;;;4.22;;
34505;SDS011;20748;42.632;23.198;2022-12-29T11:12:54;10.85;;;3.75;;
34505;SDS011;20748;42.632;23.198;2022-12-29T11:15:36;7.30;;;4.10;;
34505;SDS011;20748;42.632;23.198;2022-12-29T11:18:21;12.80;;;3.53;;
34505;SDS011;20748;42.632;23.198;2022-12-29T11:20:57;13.43;;;4.45;;
34505;SDS011;20748;42.632;23.198;2022-12-29T11:23:32;8.93;;;3.80;;
34505;SDS011;20748;42.632;23.198;2022-12-29T11:26:17;8.50;;;4.28;;
34505;SDS011;20748;42.632;23.198;2022-12-29T11:29:08;16.65;;;4.93;;
34505;SDS011;20748;42.632;23.198;2022-12-29T11:31:50;12.18;;;5.63;;
34505;SDS011;20748;42.632;23.198;2022-12-29T11:34:25;8.55;;;3.25;;
34505;SDS011;20748;42.632;23.198;2022-12-29T11:37:03;6.38;;;4.13;;
34505;SDS011;20748;42.632;23.198;2022-12-29T11:39:38;7.15;;;2.95;;
34505;SDS011;20748;42.632;23.198;2022-12-29T11:42:17;7.63;;;4.13;;
34505;SDS011;20748;42.632;23.198;2022-12-29T11:44:53;9.23;;;3.70;;
34505;SDS011;20748;42.632;23.198;2022-12-29T11:47:26;8.20;;;4.03;;
34505;SDS011;20748;42.632;23.198;2022-12-29T11:50:03;5.90;;;3.70;;
34505;SDS011;20748;42.632;23.198;2022-12-29T11:52:38;6.80;;;3.80;;
34505;SDS011;20748;42.632;23.198;2022-12-29T11:55:17;6.40;;;3.42;;
34505;SDS011;20748;42.632;23.198;2022-12-29T11:57:52;8.25;;;4.20;;
34505;SDS011;20748;42.632;23.198;2022-12-29T12:00:27;7.05;;;3.30;;
34505;SDS011;20748;42.632;23.198;2022-12-29T12:03:03;5.63;;;2.92;;
34505;SDS011;20748;42.632;23.198;2022-12-29T12:05:42;6.53;;;3.13;;
34505;SDS011;20748;42.632;23.198;2022-12-29T12:08:23;7.47;;;3.67;;
34505;SDS011;20748;42.632;23.198;2022-12-29T12:11:07;10.32;;;3.65;;
34505;SDS011;20748;42.632;23.198;2022-12-29T12:13:46;6.93;;;3.67;;
34505;SDS011;20748;42.632;23.198;2022-12-29T12:16:27;5.88;;;3.28;;
34505;SDS011;20748;42.632;23.198;2022-12-29T12:21:46;5.25;;;3.05;;
34505;SDS011;20748;42.632;23.198;2022-12-29T12:24:31;10.60;;;3.33;;
34505;SDS011;20748;42.632;23.198;2022-12-29T12:27:12;8.85;;;3.88;;
34505;SDS011;20748;42.632;23.198;2022-12-29T12:32:30;6.30;;;3.17;;
34505;SDS011;20748;42.632;23.198;2022-12-29T12:35:15;8.43;;;3.95;;
34505;SDS011;20748;42.632;23.198;2022-12-29T12:37:59;11.05;;;4.75;;
34505;SDS011;20748;42.632;23.198;2022-12-29T12:40:55;12.07;;;3.10;;
34505;SDS011;20748;42.632;23.198;2022-12-29T12:43:37;7.30;;;3.33;;
34505;SDS011;20748;42.632;23.198;2022-12-29T12:46:29;6.13;;;3.00;;
34505;SDS011;20748;42.632;23.198;2022-12-29T12:49:30;6.43;;;2.67;;
34505;SDS011;20748;42.632;23.198;2022-12-29T12:52:33;6.20;;;3.38;;
34505;SDS011;20748;42.632;23.198;2022-12-29T12:55:22;8.90;;;3.85;;
34505;SDS011;20748;42.632;23.198;2022-12-29T12:58:08;8.73;;;3.42;;
34505;SDS011;20748;42.632;23.198;2022-12-29T13:00:56;7.53;;;3.63;;
34505;SDS011;20748;42.632;23.198;2022-12-29T13:03:47;8.35;;;4.43;;
34505;SDS011;20748;42.632;23.198;2022-12-29T13:06:34;7.00;;;3.35;;
34505;SDS011;20748;42.632;23.198;2022-12-29T13:09:19;9.88;;;4.35;;
34505;SDS011;20748;42.632;23.198;2022-12-29T13:12:04;9.43;;;4.68;;
34505;SDS011;20748;42.632;23.198;2022-12-29T13:14:47;8.63;;;4.00;;
34505;SDS011;20748;42.632;23.198;2022-12-29T13:17:33;9.32;;;3.58;;
34505;SDS011;20748;42.632;23.198;2022-12-29T13:20:16;8.35;;;3.55;;
34505;SDS011;20748;42.632;23.198;2022-12-29T13:22:57;7.70;;;4.15;;
34505;SDS011;20748;42.632;23.198;2022-12-29T13:25:35;7.57;;;4.10;;
34505;SDS011;20748;42.632;23.198;2022-12-29T13:28:16;5.60;;;3.47;;
34505;SDS011;20748;42.632;23.198;2022-12-29T13:30:59;6.63;;;3.70;;
34505;SDS011;20748;42.632;23.198;2022-12-29T13:33:38;7.78;;;4.57;;
34505;SDS011;20748;42.632;23.198;2022-12-29T13:36:21;10.52;;;5.50;;
34505;SDS011;20748;42.632;23.198;2022-12-29T13:38:59;12.45;;;3.58;;
34505;SDS011;20748;42.632;23.198;2022-12-29T13:41:37;10.02;;;3.65;;
34505;SDS011;20748;42.632;23.198;2022-12-29T13:44:15;8.77;;;3.75;;
34505;SDS011;20748;42.632;23.198;2022-12-29T13:46:52;7.63;;;4.25;;
34505;SDS011;20748;42.632;23.198;2022-12-29T13:49:28;10.00;;;3.92;;
34505;SDS011;20748;42.632;23.198;2022-12-29T13:52:06;9.07;;;4.22;;
34505;SDS011;20748;42.632;23.198;2022-12-29T13:54:45;8.63;;;3.50;;
34505;SDS011;20748;42.632;23.198;2022-12-29T13:57:35;17.33;;;8.18;;
34505;SDS011;20748;42.632;23.198;2022-12-29T14:00:14;20.38;;;9.65;;
34505;SDS011;20748;42.632;23.198;2022-12-29T14:03:01;16.55;;;10.02;;
34505;SDS011;20748;42.632;23.198;2022-12-29T14:06:02;21.05;;;11.30;;
34505;SDS011;20748;42.632;23.198;2022-12-29T14:08:38;10.98;;;5.20;;
34505;SDS011;20748;42.632;23.198;2022-12-29T14:11:11;6.93;;;3.35;;
34505;SDS011;20748;42.632;23.198;2022-12-29T14:13:46;10.88;;;4.70;;
34505;SDS011;20748;42.632;23.198;2022-12-29T14:16:27;10.13;;;3.97;;
34505;SDS011;20748;42.632;23.198;2022-12-29T14:21:55;18.45;;;9.23;;
34505;SDS011;20748;42.632;23.198;2022-12-29T14:24:42;21.73;;;11.27;;
34505;SDS011;20748;42.632;23.198;2022-12-29T14:33:20;33.17;;;15.15;;
34505;SDS011;20748;42.632;23.198;2022-12-29T14:35:55;33.75;;;15.93;;
34505;SDS011;20748;42.632;23.198;2022-12-29T14:38:28;25.58;;;11.65;;
34505;SDS011;20748;42.632;23.198;2022-12-29T14:41:16;33.40;;;15.57;;
34505;SDS011;20748;42.632;23.198;2022-12-29T14:43:59;35.75;;;16.58;;
34505;SDS011;20748;42.632;23.198;2022-12-29T14:46:42;35.58;;;16.92;;
34505;SDS011;20748;42.632;23.198;2022-12-29T14:49:20;29.42;;;16.50;;
34505;SDS011;20748;42.632;23.198;2022-12-29T14:51:55;34.53;;;16.52;;
34505;SDS011;20748;42.632;23.198;2022-12-29T14:54:42;29.40;;;15.60;;
34505;SDS011;20748;42.632;23.198;2022-12-29T15:00:17;35.00;;;18.30;;
34505;SDS011;20748;42.632;23.198;2022-12-29T15:03:01;32.00;;;17.00;;
34505;SDS011;20748;42.632;23.198;2022-12-29T15:05:37;35.03;;;16.75;;
34505;SDS011;20748;42.632;23.198;2022-12-29T15:08:16;37.10;;;15.45;;
34505;SDS011;20748;42.632;23.198;2022-12-29T15:10:53;40.13;;;18.83;;
34505;SDS011;20748;42.632;23.198;2022-12-29T15:13:33;34.28;;;16.75;;
34505;SDS011;20748;42.632;23.198;2022-12-29T15:16:20;38.10;;;17.42;;
34505;SDS011;20748;42.632;23.198;2022-12-29T15:18:53;33.83;;;17.55;;
34505;SDS011;20748;42.632;23.198;2022-12-29T15:21:26;30.20;;;16.27;;
34505;SDS011;20748;42.632;23.198;2022-12-29T15:24:01;29.40;;;15.77;;
34505;SDS011;20748;42.632;23.198;2022-12-29T15:26:35;32.03;;;13.27;;
34505;SDS011;20748;42.632;23.198;2022-12-29T15:32:16;35.10;;;15.85;;
34505;SDS011;20748;42.632;23.198;2022-12-29T15:34:51;51.88;;;22.70;;
34505;SDS011;20748;42.632;23.198;2022-12-29T15:37:26;55.45;;;24.65;;
34505;SDS011;20748;42.632;23.198;2022-12-29T15:40:00;53.83;;;24.25;;
34505;SDS011;20748;42.632;23.198;2022-12-29T15:42:52;42.35;;;20.55;;
34505;SDS011;20748;42.632;23.198;2022-12-29T15:45:35;47.88;;;22.52;;
34505;SDS011;20748;42.632;23.198;2022-12-29T15:48:10;40.67;;;18.88;;
34505;SDS011;20748;42.632;23.198;2022-12-29T15:50:48;35.95;;;16.38;;
34505;SDS011;20748;42.632;23.198;2022-12-29T15:53:21;31.05;;;15.32;;
34505;SDS011;20748;42.632;23.198;2022-12-29T15:56:00;33.15;;;16.67;;